Time;durP1;ratioP1;P1;durP2;ratioP2;P2;SDS_P1;SDS_P2;PMS_P1;PMS_P2;Temp;Humidity;BMP_temperature;BMP_pressure;BME280_temperature;BME280_humidity;BME280_pressure;Samples;Min_cycle;Max_cycle;Signal;HPM_P1;HPM_P2
2022/07/29 00:00:07;;;;;;;30.10;14.32;;;;;;;;;;5077345;28;20239;-45
2022/07/29 00:02:54;;;;;;;35.53;16.42;;;;;;;;;;5076142;28;20204;-45
2022/07/29 00:05:22;;;;;;;39.60;18.45;;;;;;;;;;5076903;28;20199;-45
2022/07/29 00:07:48;;;;;;;38.13;16.90;;;;;;;;;;5076999;28;20539;-48
2022/07/29 00:10:15;;;;;;;35.88;17.85;;;;;;;;;;5077150;28;20219;-49
2022/07/29 00:12:43;;;;;;;37.80;17.50;;;;;;;;;;5076879;28;20207;-46
2022/07/29 00:15:09;;;;;;;42.90;19.00;;;;;;;;;;5076556;28;20214;-45
2022/07/29 00:17:36;;;;;;;34.15;16.77;;;;;;;;;;5076515;28;20707;-45
2022/07/29 00:20:05;;;;;;;32.45;16.52;;;;;;;;;;5076026;28;20229;-45
2022/07/29 00:22:32;;;;;;;35.25;17.58;;;;;;;;;;5076833;28;20230;-47
2022/07/29 00:24:58;;;;;;;32.88;16.63;;;;;;;;;;5077169;28;20214;-48
2022/07/29 00:27:26;;;;;;;34.72;14.82;;;;;;;;;;5075973;28;20222;-47
2022/07/29 00:29:52;;;;;;;35.17;15.45;;;;;;;;;;5076345;28;20234;-46
2022/07/29 00:32:20;;;;;;;39.00;14.85;;;;;;;;;;5077114;28;20195;-46
2022/07/29 00:37:32;;;;;;;25.70;11.60;;;;;;;;;;5077750;28;20203;-46
2022/07/29 00:40:00;;;;;;;28.75;10.13;;;;;;;;;;5076740;28;20215;-49
2022/07/29 00:42:27;;;;;;;31.25;12.07;;;;;;;;;;5076576;28;20233;-44
2022/07/29 00:44:54;;;;;;;28.98;11.48;;;;;;;;;;5076325;28;20210;-45
2022/07/29 00:47:21;;;;;;;25.40;11.30;;;;;;;;;;5076816;28;20207;-46
2022/07/29 00:49:48;;;;;;;27.67;11.85;;;;;;;;;;5075647;28;20246;-45
2022/07/29 00:52:15;;;;;;;34.50;12.10;;;;;;;;;;5076365;28;20210;-45
2022/07/29 00:54:43;;;;;;;24.98;10.93;;;;;;;;;;5076588;28;20218;-45
2022/07/29 00:57:11;;;;;;;25.52;9.77;;;;;;;;;;5076374;28;20207;-45
2022/07/29 00:59:38;;;;;;;21.17;10.32;;;;;;;;;;5075343;28;20235;-45
2022/07/29 01:02:06;;;;;;;20.42;8.98;;;;;;;;;;5076386;28;20214;-48
2022/07/29 01:04:33;;;;;;;23.67;9.18;;;;;;;;;;5076215;28;20209;-47
2022/07/29 01:07:02;;;;;;;18.25;7.57;;;;;;;;;;5076467;28;20211;-45
2022/07/29 01:09:31;;;;;;;19.23;8.25;;;;;;;;;;5076730;28;20223;-45
2022/07/29 01:12:21;;;;;;;22.83;9.90;;;;;;;;;;5075386;28;20207;-46
2022/07/29 01:14:49;;;;;;;26.42;9.60;;;;;;;;;;5076238;28;20269;-45
2022/07/29 01:17:32;;;;;;;25.08;9.38;;;;;;;;;;5075613;28;20222;-45
2022/07/29 01:20:06;;;;;;;19.85;9.45;;;;;;;;;;5076081;28;20214;-46
2022/07/29 01:22:47;;;;;;;23.67;10.15;;;;;;;;;;5075948;28;20207;-46
2022/07/29 01:25:52;;;;;;;17.25;7.88;;;;;;;;;;5075969;28;20642;-45
2022/07/29 01:29:01;;;;;;;16.25;7.88;;;;;;;;;;5076001;28;20336;-45
2022/07/29 01:31:47;;;;;;;16.67;7.65;;;;;;;;;;5075736;28;20203;-45
2022/07/29 01:34:51;;;;;;;15.05;7.80;;;;;;;;;;5075391;28;20618;-46
2022/07/29 01:37:26;;;;;;;20.38;8.57;;;;;;;;;;5075966;28;20207;-45
2022/07/29 01:39:55;;;;;;;22.58;9.57;;;;;;;;;;5075384;28;20225;-45
2022/07/29 01:42:44;;;;;;;20.17;10.18;;;;;;;;;;5075748;28;20207;-44
2022/07/29 01:45:21;;;;;;;15.13;9.30;;;;;;;;;;5075660;28;20195;-45
2022/07/29 01:48:13;;;;;;;16.23;8.02;;;;;;;;;;5075186;28;20198;-46
2022/07/29 01:50:47;;;;;;;18.30;8.32;;;;;;;;;;5074619;28;20207;-44
2022/07/29 01:53:21;;;;;;;21.67;9.10;;;;;;;;;;5074408;28;20555;-45
2022/07/29 01:55:49;;;;;;;17.27;8.40;;;;;;;;;;5074924;28;20183;-45
2022/07/29 01:58:17;;;;;;;16.15;8.27;;;;;;;;;;5074321;28;20512;-47
2022/07/29 02:00:46;;;;;;;15.15;8.50;;;;;;;;;;5075423;28;20354;-49
2022/07/29 02:03:16;;;;;;;15.65;7.35;;;;;;;;;;5075582;28;20516;-47
2022/07/29 02:05:45;;;;;;;16.25;8.10;;;;;;;;;;5075305;28;20196;-45
2022/07/29 02:08:13;;;;;;;17.50;7.95;;;;;;;;;;5074200;28;20203;-45
2022/07/29 02:10:40;;;;;;;14.82;7.25;;;;;;;;;;5074013;28;20218;-46
2022/07/29 02:13:09;;;;;;;13.88;7.78;;;;;;;;;;5073798;28;20220;-46
2022/07/29 02:15:37;;;;;;;16.13;8.63;;;;;;;;;;5074011;28;20290;-44
2022/07/29 02:18:09;;;;;;;19.98;8.55;;;;;;;;;;5073684;28;20207;-45
2022/07/29 02:20:38;;;;;;;14.68;7.45;;;;;;;;;;5074496;28;20219;-46
2022/07/29 02:23:06;;;;;;;18.90;7.57;;;;;;;;;;5074640;28;20204;-46
2022/07/29 02:25:33;;;;;;;18.65;7.05;;;;;;;;;;5073619;28;20211;-45
2022/07/29 02:28:06;;;;;;;13.52;7.60;;;;;;;;;;5073804;28;20622;-44
2022/07/29 02:30:34;;;;;;;15.90;7.72;;;;;;;;;;5074677;28;20203;-44
2022/07/29 02:33:03;;;;;;;19.60;7.63;;;;;;;;;;5074813;28;20222;-46
2022/07/29 02:35:30;;;;;;;17.88;8.00;;;;;;;;;;5074767;28;20222;-45
2022/07/29 02:40:48;;;;;;;14.60;6.82;;;;;;;;;;5073592;28;20242;-45
2022/07/29 02:43:15;;;;;;;13.30;7.55;;;;;;;;;;5073540;28;20203;-46
2022/07/29 02:45:43;;;;;;;14.55;6.70;;;;;;;;;;5073746;28;20203;-47
2022/07/29 02:48:13;;;;;;;13.85;6.65;;;;;;;;;;5072909;28;20195;-45
2022/07/29 02:50:50;;;;;;;13.82;7.25;;;;;;;;;;5073420;28;20664;-46
2022/07/29 02:53:24;;;;;;;13.93;6.95;;;;;;;;;;5073455;28;20248;-44
2022/07/29 02:56:01;;;;;;;11.85;6.45;;;;;;;;;;5073446;28;20199;-45
2022/07/29 02:58:31;;;;;;;12.80;7.05;;;;;;;;;;5073446;28;20276;-45
2022/07/29 03:01:03;;;;;;;17.17;6.97;;;;;;;;;;5073249;28;20612;-45
2022/07/29 03:03:36;;;;;;;20.48;7.78;;;;;;;;;;5074194;28;20633;-46
2022/07/29 03:06:04;;;;;;;13.32;7.05;;;;;;;;;;5074430;28;20210;-44
2022/07/29 03:08:31;;;;;;;15.10;7.03;;;;;;;;;;5073352;28;20206;-45
2022/07/29 03:11:00;;;;;;;12.40;7.25;;;;;;;;;;5074238;28;20268;-45
2022/07/29 03:13:29;;;;;;;13.40;6.88;;;;;;;;;;5074315;28;20582;-44
2022/07/29 03:15:57;;;;;;;14.13;6.93;;;;;;;;;;5073780;28;20203;-45
2022/07/29 03:18:25;;;;;;;9.98;5.45;;;;;;;;;;5073352;28;20204;-45
2022/07/29 03:20:52;;;;;;;12.23;6.68;;;;;;;;;;5073592;28;20289;-44
2022/07/29 03:23:22;;;;;;;14.70;6.30;;;;;;;;;;5074309;28;20617;-46
2022/07/29 03:25:49;;;;;;;15.73;6.47;;;;;;;;;;5074285;28;20597;-47
2022/07/29 03:28:17;;;;;;;8.63;5.95;;;;;;;;;;5074363;28;20609;-45
2022/07/29 03:30:45;;;;;;;11.35;5.70;;;;;;;;;;5074164;28;20211;-46
2022/07/29 03:33:13;;;;;;;12.30;6.35;;;;;;;;;;5074229;28;20596;-46
2022/07/29 03:35:41;;;;;;;11.88;5.72;;;;;;;;;;5074404;28;20230;-47
2022/07/29 03:38:08;;;;;;;15.75;5.85;;;;;;;;;;5074119;28;20207;-46
2022/07/29 03:40:40;;;;;;;18.30;4.88;;;;;;;;;;5074190;28;20231;-47
2022/07/29 03:43:07;;;;;;;7.05;3.97;;;;;;;;;;5074054;28;20204;-45
2022/07/29 03:45:35;;;;;;;8.15;4.10;;;;;;;;;;5072736;28;20200;-45
2022/07/29 03:48:08;;;;;;;19.90;4.35;;;;;;;;;;5073093;28;20637;-46
2022/07/29 03:50:35;;;;;;;6.75;4.50;;;;;;;;;;5073942;28;20207;-46
2022/07/29 03:53:03;;;;;;;15.73;3.92;;;;;;;;;;5073104;28;20207;-46
2022/07/29 03:55:33;;;;;;;9.00;4.40;;;;;;;;;;5075482;28;20203;-46
2022/07/29 03:58:01;;;;;;;7.95;3.67;;;;;;;;;;5077065;28;20200;-45
2022/07/29 04:00:29;;;;;;;7.80;3.35;;;;;;;;;;5076661;28;20231;-46
2022/07/29 04:02:57;;;;;;;8.05;3.40;;;;;;;;;;5070284;28;20264;-45
2022/07/29 04:05:24;;;;;;;7.70;3.97;;;;;;;;;;5074469;28;20219;-46
2022/07/29 04:07:51;;;;;;;4.70;3.85;;;;;;;;;;5082179;28;20563;-45
2022/07/29 04:10:22;;;;;;;9.75;4.10;;;;;;;;;;5078690;28;20237;-47
2022/07/29 04:12:59;;;;;;;10.55;4.68;;;;;;;;;;5080812;28;20550;-46
2022/07/29 04:15:28;;;;;;;6.63;4.07;;;;;;;;;;5072224;28;20288;-46
2022/07/29 04:17:58;;;;;;;6.57;4.00;;;;;;;;;;5070390;28;20231;-46
2022/07/29 04:20:25;;;;;;;10.38;4.53;;;;;;;;;;5066326;28;20231;-46
2022/07/29 04:22:52;;;;;;;9.80;4.40;;;;;;;;;;5076522;28;20223;-46
2022/07/29 04:25:19;;;;;;;6.20;4.05;;;;;;;;;;5076437;28;20227;-45
2022/07/29 04:28:02;;;;;;;6.47;4.47;;;;;;;;;;5076061;28;20231;-46
2022/07/29 04:30:30;;;;;;;9.23;4.07;;;;;;;;;;5076180;28;20566;-46
2022/07/29 04:32:58;;;;;;;5.57;3.72;;;;;;;;;;5075577;28;20281;-47
2022/07/29 04:35:25;;;;;;;9.15;3.83;;;;;;;;;;5075980;28;20223;-45
2022/07/29 04:37:52;;;;;;;8.27;4.32;;;;;;;;;;5076202;28;20223;-45
2022/07/29 04:40:20;;;;;;;12.77;5.22;;;;;;;;;;5075648;28;20674;-46
2022/07/29 04:42:47;;;;;;;7.03;5.20;;;;;;;;;;5076172;28;20235;-45
2022/07/29 04:45:15;;;;;;;9.63;4.70;;;;;;;;;;5075750;28;20700;-45
2022/07/29 04:47:49;;;;;;;7.05;4.53;;;;;;;;;;5075548;28;20223;-46
2022/07/29 04:50:16;;;;;;;8.68;4.78;;;;;;;;;;5075531;28;20231;-50
2022/07/29 04:52:43;;;;;;;8.85;4.13;;;;;;;;;;5075830;28;20580;-44
2022/07/29 04:55:10;;;;;;;10.93;4.47;;;;;;;;;;5087043;28;20296;-45
2022/07/29 04:57:37;;;;;;;7.07;4.13;;;;;;;;;;5095227;28;20227;-46
2022/07/29 05:00:05;;;;;;;8.02;4.00;;;;;;;;;;5094552;27;20321;-45
2022/07/29 05:02:34;;;;;;;7.00;4.13;;;;;;;;;;5097115;28;20259;-45
2022/07/29 05:05:01;;;;;;;8.70;4.32;;;;;;;;;;5096411;28;20207;-45
2022/07/29 05:07:28;;;;;;;8.05;4.57;;;;;;;;;;5096413;28;20203;-45
2022/07/29 05:09:56;;;;;;;8.15;4.15;;;;;;;;;;5097136;28;20206;-45
2022/07/29 05:12:24;;;;;;;6.57;3.60;;;;;;;;;;5090580;28;20196;-44
2022/07/29 05:14:51;;;;;;;5.03;3.78;;;;;;;;;;5076471;28;20191;-46
2022/07/29 05:17:19;;;;;;;7.10;4.20;;;;;;;;;;5076287;28;20207;-47
2022/07/29 05:19:46;;;;;;;13.98;3.95;;;;;;;;;;5076077;28;20207;-45
2022/07/29 05:22:13;;;;;;;8.40;3.28;;;;;;;;;;5076144;28;20685;-45
2022/07/29 05:24:40;;;;;;;6.28;3.42;;;;;;;;;;5076028;28;20203;-45
2022/07/29 05:27:08;;;;;;;8.20;3.60;;;;;;;;;;5076058;28;20199;-46
2022/07/29 05:29:35;;;;;;;6.10;3.50;;;;;;;;;;5076130;28;20196;-50
2022/07/29 05:32:11;;;;;;;8.95;3.78;;;;;;;;;;5075741;28;20211;-45
2022/07/29 05:34:39;;;;;;;6.53;3.30;;;;;;;;;;5076157;28;20200;-45
2022/07/29 05:37:19;;;;;;;9.18;4.03;;;;;;;;;;5076049;28;20558;-44
2022/07/29 05:39:46;;;;;;;7.05;3.72;;;;;;;;;;5076038;28;20234;-46
2022/07/29 05:42:24;;;;;;;6.38;3.67;;;;;;;;;;5075753;28;20234;-47
2022/07/29 05:44:51;;;;;;;7.28;3.63;;;;;;;;;;5075735;28;20220;-47
2022/07/29 05:47:18;;;;;;;5.40;3.83;;;;;;;;;;5075545;28;20215;-45
2022/07/29 05:49:45;;;;;;;10.05;4.10;;;;;;;;;;5075373;28;20203;-47
2022/07/29 05:52:15;;;;;;;7.50;3.60;;;;;;;;;;5075580;28;20203;-46
2022/07/29 05:54:43;;;;;;;9.20;3.90;;;;;;;;;;5075533;28;20203;-49
2022/07/29 05:57:21;;;;;;;8.75;3.35;;;;;;;;;;5075456;28;20210;-47
2022/07/29 05:59:48;;;;;;;8.68;3.90;;;;;;;;;;5075581;28;20246;-48
2022/07/29 06:02:17;;;;;;;8.05;4.05;;;;;;;;;;5075135;28;20292;-46
2022/07/29 06:04:44;;;;;;;10.45;3.58;;;;;;;;;;5075339;28;20211;-54
2022/07/29 06:07:11;;;;;;;5.63;3.58;;;;;;;;;;5075215;28;20196;-48
2022/07/29 06:09:38;;;;;;;6.10;3.08;;;;;;;;;;5075010;28;20268;-53
2022/07/29 06:12:05;;;;;;;6.00;2.85;;;;;;;;;;5075028;28;20200;-51
2022/07/29 06:14:32;;;;;;;5.78;2.60;;;;;;;;;;5075166;28;20226;-46
2022/07/29 06:16:59;;;;;;;7.10;2.63;;;;;;;;;;5075122;28;20203;-46
2022/07/29 06:19:26;;;;;;;8.27;2.85;;;;;;;;;;5074806;28;20226;-48
2022/07/29 06:21:53;;;;;;;8.93;2.60;;;;;;;;;;5075208;28;20234;-46
2022/07/29 06:24:20;;;;;;;9.30;2.30;;;;;;;;;;5073073;28;20534;-52
2022/07/29 06:26:48;;;;;;;8.40;2.33;;;;;;;;;;5074555;28;20203;-49
2022/07/29 06:29:15;;;;;;;6.25;1.98;;;;;;;;;;5080728;28;20202;-49
2022/07/29 06:31:42;;;;;;;8.82;1.90;;;;;;;;;;5066974;28;20290;-54
2022/07/29 06:34:09;;;;;;;4.00;2.00;;;;;;;;;;5074957;28;20633;-53
2022/07/29 06:36:37;;;;;;;3.17;1.67;;;;;;;;;;5074497;28;20227;-54
2022/07/29 06:39:08;;;;;;;6.38;1.73;;;;;;;;;;5074892;28;20192;-53
2022/07/29 06:41:38;;;;;;;2.33;1.33;;;;;;;;;;5074811;28;20311;-53
2022/07/29 06:44:09;;;;;;;4.07;1.70;;;;;;;;;;5107694;28;20207;-56
2022/07/29 06:46:36;;;;;;;5.00;1.42;;;;;;;;;;5074627;28;20227;-53
2022/07/29 06:49:04;;;;;;;6.43;1.88;;;;;;;;;;5074297;28;20649;-50
2022/07/29 06:51:31;;;;;;;4.60;1.65;;;;;;;;;;5075007;28;20207;-52
2022/07/29 06:53:59;;;;;;;2.20;1.50;;;;;;;;;;5073102;28;20203;-54
2022/07/29 06:56:33;;;;;;;4.07;1.70;;;;;;;;;;5072588;28;20210;-54
2022/07/29 06:59:07;;;;;;;3.17;1.38;;;;;;;;;;5073337;28;20350;-50
2022/07/29 07:01:36;;;;;;;3.50;1.10;;;;;;;;;;5074218;28;20235;-50
2022/07/29 07:04:04;;;;;;;2.70;1.45;;;;;;;;;;5074534;28;20497;-53
2022/07/29 07:06:31;;;;;;;2.63;1.52;;;;;;;;;;5069172;28;20208;-53
2022/07/29 07:08:58;;;;;;;2.97;1.40;;;;;;;;;;5054611;28;20203;-50
2022/07/29 07:11:25;;;;;;;3.10;1.17;;;;;;;;;;5054267;28;20212;-52
2022/07/29 07:13:52;;;;;;;7.20;1.10;;;;;;;;;;5066121;28;20204;-52
2022/07/29 07:16:22;;;;;;;2.55;1.10;;;;;;;;;;5074484;28;20203;-53
2022/07/29 07:18:49;;;;;;;3.97;1.20;;;;;;;;;;5073011;28;20196;-50
2022/07/29 07:21:16;;;;;;;3.75;1.00;;;;;;;;;;5074162;28;20278;-52
2022/07/29 07:23:45;;;;;;;2.88;1.10;;;;;;;;;;5074401;28;20215;-50
2022/07/29 07:26:12;;;;;;;3.38;1.08;;;;;;;;;;5074084;28;20204;-52
2022/07/29 07:28:40;;;;;;;6.93;1.52;;;;;;;;;;5074066;28;20522;-49
2022/07/29 07:31:07;;;;;;;5.60;1.50;;;;;;;;;;5076694;28;20306;-51
2022/07/29 07:33:34;;;;;;;2.05;1.20;;;;;;;;;;5078127;28;20211;-54
2022/07/29 07:36:01;;;;;;;7.85;1.42;;;;;;;;;;5077679;28;20630;-51
2022/07/29 07:38:28;;;;;;;4.53;1.02;;;;;;;;;;5073234;28;20203;-52
2022/07/29 07:40:55;;;;;;;3.28;1.17;;;;;;;;;;5077889;28;20300;-49
2022/07/29 07:43:22;;;;;;;3.88;1.00;;;;;;;;;;5077821;28;20203;-50
2022/07/29 07:45:49;;;;;;;3.25;1.17;;;;;;;;;;5078031;28;20199;-53
2022/07/29 07:48:16;;;;;;;4.45;1.10;;;;;;;;;;5077801;28;20226;-50
2022/07/29 07:50:44;;;;;;;2.50;0.85;;;;;;;;;;5072070;28;20249;-51
2022/07/29 07:53:11;;;;;;;4.75;1.15;;;;;;;;;;5077426;28;20653;-50
2022/07/29 07:55:42;;;;;;;5.00;1.00;;;;;;;;;;5077645;28;20256;-56
2022/07/29 07:58:29;;;;;;;3.60;1.17;;;;;;;;;;5076107;28;20261;-57
2022/07/29 08:00:56;;;;;;;4.90;1.00;;;;;;;;;;5077483;28;20273;-57
2022/07/29 08:03:23;;;;;;;6.10;0.90;;;;;;;;;;5077487;28;20211;-58
2022/07/29 08:05:51;;;;;;;7.05;1.05;;;;;;;;;;5077325;28;20203;-57
2022/07/29 08:08:18;;;;;;;1.65;0.90;;;;;;;;;;5077583;28;20253;-57
2022/07/29 08:10:51;;;;;;;1.95;0.88;;;;;;;;;;5077353;28;20203;-56
2022/07/29 08:13:20;;;;;;;3.05;0.68;;;;;;;;;;5076860;28;20203;-57
2022/07/29 08:15:57;;;;;;;2.95;1.00;;;;;;;;;;5077337;28;20229;-56
2022/07/29 08:18:26;;;;;;;2.15;1.10;;;;;;;;;;5075445;28;20207;-55
2022/07/29 08:20:53;;;;;;;2.05;0.80;;;;;;;;;;5076912;28;20192;-57
2022/07/29 08:23:20;;;;;;;3.80;1.00;;;;;;;;;;5076873;28;20218;-56
2022/07/29 08:25:48;;;;;;;1.65;0.82;;;;;;;;;;5075602;28;20210;-57
2022/07/29 08:28:17;;;;;;;2.78;0.80;;;;;;;;;;5076554;28;20210;-56
2022/07/29 08:30:44;;;;;;;1.95;0.70;;;;;;;;;;5076824;28;20192;-56
2022/07/29 08:33:11;;;;;;;3.88;0.93;;;;;;;;;;5076183;28;20195;-57
2022/07/29 08:35:38;;;;;;;2.60;0.82;;;;;;;;;;5076245;28;20218;-58
2022/07/29 08:38:05;;;;;;;4.22;0.65;;;;;;;;;;5076433;28;20202;-57
2022/07/29 08:40:32;;;;;;;1.48;0.60;;;;;;;;;;5075751;28;20203;-57
2022/07/29 08:43:07;;;;;;;2.05;0.75;;;;;;;;;;5076550;28;20223;-57
2022/07/29 08:45:42;;;;;;;0.60;0.55;;;;;;;;;;5076282;28;20650;-57
2022/07/29 08:48:18;;;;;;;2.42;0.70;;;;;;;;;;5076176;28;20202;-56
2022/07/29 08:50:46;;;;;;;2.35;0.93;;;;;;;;;;5076433;28;20188;-57
2022/07/29 08:53:16;;;;;;;1.75;0.60;;;;;;;;;;5076335;28;20191;-57
2022/07/29 08:55:45;;;;;;;4.63;0.90;;;;;;;;;;5076039;28;20203;-55
2022/07/29 08:58:13;;;;;;;1.33;0.63;;;;;;;;;;5075855;28;20199;-56
2022/07/29 09:00:46;;;;;;;2.55;1.02;;;;;;;;;;5074710;28;20318;-56
2022/07/29 09:03:18;;;;;;;4.97;0.85;;;;;;;;;;5076117;28;20212;-55
2022/07/29 09:05:46;;;;;;;1.52;0.60;;;;;;;;;;5075364;28;20195;-57
2022/07/29 09:08:15;;;;;;;5.57;0.93;;;;;;;;;;5075159;28;20534;-56
2022/07/29 09:10:43;;;;;;;1.70;0.80;;;;;;;;;;5075671;28;20199;-56
2022/07/29 09:13:10;;;;;;;2.25;0.80;;;;;;;;;;5075394;28;20195;-57
2022/07/29 09:15:37;;;;;;;11.13;0.95;;;;;;;;;;5075443;28;20203;-56
2022/07/29 09:18:04;;;;;;;4.63;0.68;;;;;;;;;;5075648;28;20195;-56
2022/07/29 09:23:17;;;;;;;2.92;0.98;;;;;;;;;;5075523;28;20207;-57
2022/07/29 09:25:50;;;;;;;2.65;0.90;;;;;;;;;;5075314;28;20638;-57
2022/07/29 09:28:17;;;;;;;2.30;0.50;;;;;;;;;;5074612;28;20191;-56
2022/07/29 09:30:55;;;;;;;2.58;0.65;;;;;;;;;;5075217;28;20514;-56
2022/07/29 09:33:23;;;;;;;6.15;1.08;;;;;;;;;;5075462;28;20234;-56
2022/07/29 09:36:07;;;;;;;2.25;0.80;;;;;;;;;;5075142;28;20212;-56
2022/07/29 09:38:37;;;;;;;1.50;0.50;;;;;;;;;;5075306;28;20584;-56
2022/07/29 09:41:05;;;;;;;4.20;0.85;;;;;;;;;;5075454;28;20200;-57
2022/07/29 09:43:33;;;;;;;4.88;0.90;;;;;;;;;;5075220;28;20622;-56
2022/07/29 09:46:11;;;;;;;7.53;0.80;;;;;;;;;;5075476;28;20218;-57
2022/07/29 09:48:39;;;;;;;1.15;0.65;;;;;;;;;;5075429;28;20187;-55
2022/07/29 09:51:17;;;;;;;5.75;0.98;;;;;;;;;;5075454;28;20223;-54
2022/07/29 09:53:50;;;;;;;1.92;0.60;;;;;;;;;;5074698;28;20204;-55
2022/07/29 09:56:19;;;;;;;1.20;0.50;;;;;;;;;;5075550;28;20252;-55
2022/07/29 09:58:46;;;;;;;1.98;0.70;;;;;;;;;;5074173;28;20199;-54
2022/07/29 10:01:14;;;;;;;2.38;0.68;;;;;;;;;;5074154;28;20288;-59
2022/07/29 10:03:52;;;;;;;1.75;0.70;;;;;;;;;;5075257;28;20261;-59
2022/07/29 10:06:19;;;;;;;2.53;0.85;;;;;;;;;;5074823;28;20187;-59
2022/07/29 10:08:46;;;;;;;1.13;0.57;;;;;;;;;;5074217;28;20291;-59
2022/07/29 10:11:15;;;;;;;3.08;0.77;;;;;;;;;;5074871;28;20203;-59
2022/07/29 10:13:44;;;;;;;2.35;0.70;;;;;;;;;;5074675;28;20718;-59
2022/07/29 10:16:12;;;;;;;2.30;0.73;;;;;;;;;;5075019;28;20211;-59
2022/07/29 10:18:41;;;;;;;1.13;0.47;;;;;;;;;;5074832;28;20203;-58
2022/07/29 10:21:09;;;;;;;2.30;0.80;;;;;;;;;;5074825;28;20213;-59
2022/07/29 10:23:49;;;;;;;3.88;0.70;;;;;;;;;;5075114;28;20187;-58
2022/07/29 10:26:16;;;;;;;5.38;0.52;;;;;;;;;;5075012;28;20203;-59
2022/07/29 10:28:44;;;;;;;4.10;0.60;;;;;;;;;;5074024;28;20278;-59
2022/07/29 10:31:18;;;;;;;2.13;0.60;;;;;;;;;;5074824;28;20203;-59
2022/07/29 10:34:22;;;;;;;2.65;0.70;;;;;;;;;;5074647;28;20191;-58
2022/07/29 10:37:28;;;;;;;3.30;0.80;;;;;;;;;;5074790;28;20217;-59
2022/07/29 10:43:23;;;;;;;0.57;0.30;;;;;;;;;;5074254;28;20314;-58
2022/07/29 10:45:57;;;;;;;0.70;0.50;;;;;;;;;;5073915;28;20183;-58
2022/07/29 10:48:24;;;;;;;2.38;0.55;;;;;;;;;;5074656;28;20200;-52
2022/07/29 10:51:03;;;;;;;4.60;0.70;;;;;;;;;;5073067;28;20211;-51
2022/07/29 10:53:51;;;;;;;1.33;0.70;;;;;;;;;;5074207;28;20575;-53
2022/07/29 10:56:30;;;;;;;2.55;0.73;;;;;;;;;;5074193;28;20199;-54
2022/07/29 10:59:19;;;;;;;5.88;0.70;;;;;;;;;;5074296;28;20196;-51
2022/07/29 11:02:32;;;;;;;2.17;0.50;;;;;;;;;;5074537;28;20227;-52
2022/07/29 11:05:19;;;;;;;6.30;0.90;;;;;;;;;;5077229;28;20203;-52
2022/07/29 11:08:12;;;;;;;1.02;0.52;;;;;;;;;;5078281;28;20204;-54
2022/07/29 11:10:48;;;;;;;2.40;0.50;;;;;;;;;;5078158;28;20645;-51
2022/07/29 11:13:43;;;;;;;1.58;0.50;;;;;;;;;;5078274;28;20220;-54
2022/07/29 11:16:12;;;;;;;5.72;0.70;;;;;;;;;;5078453;28;20187;-54
2022/07/29 11:19:13;;;;;;;3.08;0.50;;;;;;;;;;5078402;28;20265;-52
2022/07/29 11:21:42;;;;;;;2.10;0.50;;;;;;;;;;5078709;28;20276;-53
2022/07/29 11:24:39;;;;;;;3.33;0.63;;;;;;;;;;5078576;28;20202;-53
2022/07/29 11:27:19;;;;;;;3.05;0.70;;;;;;;;;;5078249;28;20187;-54
2022/07/29 11:29:52;;;;;;;1.75;0.45;;;;;;;;;;5077844;28;20614;-55
2022/07/29 11:32:19;;;;;;;1.42;0.40;;;;;;;;;;5075686;28;20207;-49
2022/07/29 11:35:23;;;;;;;1.33;0.50;;;;;;;;;;5076564;28;20207;-54
2022/07/29 11:38:24;;;;;;;1.00;0.60;;;;;;;;;;5077465;28;20291;-52
2022/07/29 11:41:25;;;;;;;0.90;0.50;;;;;;;;;;5062155;28;20203;-52
2022/07/29 11:43:58;;;;;;;2.97;0.50;;;;;;;;;;5077577;28;20318;-51
2022/07/29 11:46:46;;;;;;;0.88;0.50;;;;;;;;;;5074266;28;20191;-49
2022/07/29 11:49:19;;;;;;;0.50;0.40;;;;;;;;;;5077308;28;20214;-53
2022/07/29 11:51:56;;;;;;;0.85;0.30;;;;;;;;;;5077265;28;20195;-53
2022/07/29 11:54:26;;;;;;;3.88;0.50;;;;;;;;;;5077655;28;20197;-53
2022/07/29 11:56:54;;;;;;;2.00;0.50;;;;;;;;;;5076714;28;20655;-52
2022/07/29 11:59:21;;;;;;;0.90;0.35;;;;;;;;;;5077155;28;20245;-53
2022/07/29 12:01:59;;;;;;;2.55;0.43;;;;;;;;;;5070555;28;20191;-52
2022/07/29 12:04:54;;;;;;;9.00;0.77;;;;;;;;;;5077009;28;20199;-54
2022/07/29 12:07:33;;;;;;;3.42;0.50;;;;;;;;;;5077297;28;20218;-54
2022/07/29 12:10:02;;;;;;;3.05;0.63;;;;;;;;;;5081912;28;20195;-53
2022/07/29 12:12:33;;;;;;;1.80;0.40;;;;;;;;;;5083153;28;20194;-50
2022/07/29 12:15:20;;;;;;;1.20;0.47;;;;;;;;;;5084865;28;20209;-52
2022/07/29 12:17:48;;;;;;;0.60;0.50;;;;;;;;;;5084067;28;20206;-53
2022/07/29 12:20:29;;;;;;;1.52;0.57;;;;;;;;;;5084959;28;20191;-53
2022/07/29 12:22:56;;;;;;;4.28;0.85;;;;;;;;;;5084629;28;20211;-52
2022/07/29 12:25:24;;;;;;;2.10;0.43;;;;;;;;;;5085266;28;20211;-49
2022/07/29 12:28:02;;;;;;;3.47;0.60;;;;;;;;;;5082630;28;20221;-53
2022/07/29 12:30:39;;;;;;;1.88;0.55;;;;;;;;;;5085086;28;20202;-49
2022/07/29 12:33:27;;;;;;;0.60;0.38;;;;;;;;;;5076899;28;20195;-49
2022/07/29 12:35:59;;;;;;;1.65;0.50;;;;;;;;;;5072425;28;20231;-53
2022/07/29 12:38:40;;;;;;;4.32;0.70;;;;;;;;;;5082025;28;20334;-49
2022/07/29 12:41:07;;;;;;;1.73;0.65;;;;;;;;;;5079244;28;20219;-54
2022/07/29 12:43:34;;;;;;;2.80;0.52;;;;;;;;;;5081748;28;20292;-54
2022/07/29 12:46:12;;;;;;;2.28;0.70;;;;;;;;;;5073987;28;20250;-50
2022/07/29 12:48:41;;;;;;;0.98;0.60;;;;;;;;;;5083025;28;20233;-53
2022/07/29 12:51:11;;;;;;;0.95;0.60;;;;;;;;;;5074137;28;20228;-49
2022/07/29 12:53:38;;;;;;;2.63;0.43;;;;;;;;;;5075303;28;20285;-48
2022/07/29 12:56:06;;;;;;;2.85;0.60;;;;;;;;;;5075185;28;20277;-50
2022/07/29 12:58:53;;;;;;;1.60;0.70;;;;;;;;;;5059071;28;20726;-53
2022/07/29 13:01:21;;;;;;;1.23;0.50;;;;;;;;;;5075000;28;20243;-52
2022/07/29 13:03:53;;;;;;;3.60;0.85;;;;;;;;;;5075294;28;20239;-50
2022/07/29 13:06:40;;;;;;;0.88;0.40;;;;;;;;;;5074364;28;20242;-49
2022/07/29 13:09:15;;;;;;;5.57;0.70;;;;;;;;;;5075093;28;20222;-51
2022/07/29 13:11:50;;;;;;;2.35;0.50;;;;;;;;;;5073786;28;20249;-52
2022/07/29 13:14:33;;;;;;;7.88;0.50;;;;;;;;;;5074983;28;20256;-50
2022/07/29 13:17:12;;;;;;;1.20;0.40;;;;;;;;;;5060130;28;20227;-51
2022/07/29 13:19:45;;;;;;;1.65;0.40;;;;;;;;;;5074333;28;20701;-50
2022/07/29 13:22:15;;;;;;;1.58;0.45;;;;;;;;;;5074250;28;20243;-50
2022/07/29 13:24:52;;;;;;;3.92;0.60;;;;;;;;;;5074507;28;20242;-49
2022/07/29 13:27:25;;;;;;;4.18;0.50;;;;;;;;;;5073371;28;20219;-51
2022/07/29 13:29:54;;;;;;;1.92;0.70;;;;;;;;;;5074921;28;20245;-50
2022/07/29 13:32:21;;;;;;;2.03;0.80;;;;;;;;;;5074204;28;20572;-52
2022/07/29 13:35:00;;;;;;;5.57;0.60;;;;;;;;;;5058593;28;20222;-49
2022/07/29 13:37:34;;;;;;;0.95;0.50;;;;;;;;;;5074267;28;20219;-49
2022/07/29 13:40:02;;;;;;;7.30;0.77;;;;;;;;;;5074511;28;20310;-49
2022/07/29 13:42:31;;;;;;;3.88;0.52;;;;;;;;;;5073966;28;20235;-50
2022/07/29 13:44:59;;;;;;;3.20;0.57;;;;;;;;;;5077583;28;20218;-54
2022/07/29 13:47:28;;;;;;;1.17;0.52;;;;;;;;;;5085397;28;20526;-53
2022/07/29 13:50:03;;;;;;;15.43;1.30;;;;;;;;;;5073879;28;20227;-51
2022/07/29 13:52:33;;;;;;;1.35;0.68;;;;;;;;;;5074063;28;20274;-53
2022/07/29 13:55:00;;;;;;;5.85;0.60;;;;;;;;;;5074240;28;20223;-55
2022/07/29 13:57:28;;;;;;;2.35;0.57;;;;;;;;;;5073384;28;20709;-52
2022/07/29 13:59:55;;;;;;;1.33;0.40;;;;;;;;;;5066700;28;20555;-52
2022/07/29 14:02:22;;;;;;;0.95;0.30;;;;;;;;;;5073362;28;20670;-52
2022/07/29 14:04:53;;;;;;;2.70;0.63;;;;;;;;;;5057265;28;20703;-56
2022/07/29 14:07:21;;;;;;;3.80;0.77;;;;;;;;;;5073546;28;20223;-50
2022/07/29 14:09:48;;;;;;;2.80;0.77;;;;;;;;;;5073746;28;20227;-48
2022/07/29 14:12:15;;;;;;;3.65;0.60;;;;;;;;;;5073469;28;20215;-52
2022/07/29 14:14:43;;;;;;;2.47;0.63;;;;;;;;;;5073195;28;20231;-49
2022/07/29 14:17:13;;;;;;;2.88;0.47;;;;;;;;;;5074020;28;20246;-52
2022/07/29 14:19:40;;;;;;;4.88;0.60;;;;;;;;;;5073548;28;20357;-47
2022/07/29 14:22:08;;;;;;;4.45;0.55;;;;;;;;;;5073672;28;20227;-45
2022/07/29 14:24:36;;;;;;;1.50;0.60;;;;;;;;;;5074136;28;20245;-46
2022/07/29 14:27:05;;;;;;;4.38;1.27;;;;;;;;;;5074277;28;20313;-46
2022/07/29 14:29:32;;;;;;;0.98;0.45;;;;;;;;;;5073888;28;20553;-47
2022/07/29 14:32:06;;;;;;;4.85;0.60;;;;;;;;;;5073949;28;20223;-46
2022/07/29 14:34:35;;;;;;;4.75;0.60;;;;;;;;;;5072667;28;20231;-47
2022/07/29 14:37:04;;;;;;;4.25;0.60;;;;;;;;;;5073629;28;20245;-47
2022/07/29 14:39:33;;;;;;;7.63;0.88;;;;;;;;;;5075600;28;20265;-47
2022/07/29 14:42:08;;;;;;;1.52;0.60;;;;;;;;;;5073773;28;20223;-51
2022/07/29 14:44:37;;;;;;;1.55;0.52;;;;;;;;;;5073961;28;20246;-47
2022/07/29 14:47:04;;;;;;;4.03;0.63;;;;;;;;;;5073919;28;20296;-46
2022/07/29 14:49:34;;;;;;;3.80;0.38;;;;;;;;;;5073335;28;20666;-45
2022/07/29 14:52:02;;;;;;;6.70;1.02;;;;;;;;;;5073272;28;20223;-46
2022/07/29 14:54:29;;;;;;;4.85;0.68;;;;;;;;;;5073703;28;20223;-48
2022/07/29 14:56:56;;;;;;;2.92;0.57;;;;;;;;;;5073389;28;20674;-48
2022/07/29 14:59:25;;;;;;;1.92;0.30;;;;;;;;;;5073799;28;20237;-48
2022/07/29 15:01:52;;;;;;;13.75;1.02;;;;;;;;;;5073439;28;20297;-48
2022/07/29 15:04:19;;;;;;;4.60;0.60;;;;;;;;;;5072962;28;20261;-46
2022/07/29 15:06:47;;;;;;;0.60;0.50;;;;;;;;;;5073718;28;20219;-46
2022/07/29 15:09:14;;;;;;;2.63;0.70;;;;;;;;;;5067735;28;20282;-45
2022/07/29 15:11:41;;;;;;;5.68;0.55;;;;;;;;;;5073869;28;20207;-45
2022/07/29 15:14:08;;;;;;;10.68;0.90;;;;;;;;;;5068159;28;20525;-47